Thunder radar more information blitzortung!


Radar de pluja more information rain snow radar


Visita la nostra xarxa de llocs de meteo:

Template documentation
and downloads

And another site



No particular awareness of the weather is required.    There are no Weather-warnings

Pagina Historial Weather Underground text

Diari Resum Desembre 23, 2017 Unitats:  Mètric    Imperial   Tant
« Previous Dia
SegĂźent Dia »
Diari Setmana Mensual Anual Personalitzada
  Maxima: Minima: Media:
Temperatura: -17.8 °C -16.6 °C -13.8 °C
Punt de rosada: -17.8 °C -18.4 °C -16.8 °C
Humitat: Humidity % 63 % 69 %
Wind Speed: 0 km/h 0 km/h 6.4 km/h
RĂ fegues de vent: 0 km/h - -
Vent:- - SSE
Pression baro: 0 hPa 34899.5 hPa -
Precipitacions: 0 mm    
Historical Graphs
 
 
Dades de taula per Desembre 23, 2017
Temps Temperatura Punt de rosada Pression baro Vent Wind Speed RĂ fegues de vent Humitat Rainfall Rate (Hourly)
-17.8 °C -17.8 °C 0 hPa Calm     Humidity % 0 mm
00:04 -13.9 °C -17.4 °C 34946.9 hPa Calm     64 % 0 mm
00:05 -13.9 °C -17.4 °C 34946.9 hPa Calm     64 % 0 mm
00:10 -13.9 °C -17.4 °C 34946.9 hPa Calm     64 % 0 mm
00:11 -13.9 °C -17.4 °C 34946.9 hPa Calm     64 % 0 mm
00:15 -15 °C -17.4 °C 34946.9 hPa NE 12.9 km/h 15.6 km/h 73 % 0 mm
00:25 -15.1 °C -17.6 °C 34946.9 hPa NNE 2.6 km/h 10.3 km/h 73 % 0 mm
00:35 -15.2 °C -17.8 °C 34946.9 hPa WNW 5.1 km/h 7.7 km/h 72 % 0 mm
00:45 -15.3 °C -17.8 °C 34946.9 hPa WNW 5.1 km/h 5.1 km/h 73 % 0 mm
00:55 -15.4 °C -17.9 °C 34967.2 hPa NW 5.1 km/h 5.1 km/h 72 % 0 mm
01:05 -15.4 °C -17.8 °C 34946.9 hPa Calm   5.1 km/h 73 % 0 mm
01:15 -15.4 °C -17.7 °C 34946.9 hPa NW 2.6 km/h 5.1 km/h 74 % 0 mm
01:25 -15.4 °C -17.7 °C 34967.2 hPa NNE 2.6 km/h 5.1 km/h 74 % 0 mm
01:35 -15.4 °C -17.7 °C 34967.2 hPa NNE 5.1 km/h 7.7 km/h 74 % 0 mm
01:45 -15.4 °C -17.7 °C 34967.2 hPa Calm   7.7 km/h 74 % 0 mm
01:55 -15.4 °C -17.8 °C 35001.1 hPa Calm   7.7 km/h 74 % 0 mm
02:05 -15.5 °C -17.8 °C 35001.1 hPa North 2.6 km/h 5.1 km/h 74 % 0 mm
02:15 -15.6 °C -17.9 °C 35001.1 hPa Calm   5.1 km/h 74 % 0 mm
02:25 -15.7 °C -18.1 °C 35001.1 hPa West 2.6 km/h 5.1 km/h 74 % 0 mm
02:35 -15.6 °C -17.8 °C 35001.1 hPa NNW 2.6 km/h 5.1 km/h 75 % 0 mm
02:45 -15.5 °C -17.7 °C 35001.1 hPa NE 2.6 km/h 2.6 km/h 75 % 0 mm
02:55 -15.4 °C -17.6 °C 35038.3 hPa NNE 2.6 km/h 7.7 km/h 75 % 0 mm
03:05 -15.4 °C -17.6 °C 35001.1 hPa NNE 5.1 km/h 7.7 km/h 75 % 0 mm
03:15 -15.2 °C -17.4 °C 35001.1 hPa NNE 2.6 km/h 5.1 km/h 75 % 0 mm
03:25 -15.1 °C -17.3 °C 35001.1 hPa NNE 2.6 km/h 5.1 km/h 75 % 0 mm
03:35 -14.9 °C -17.3 °C 35001.1 hPa NE 7.7 km/h 7.7 km/h 74 % 0 mm
03:45 -14.8 °C -17.2 °C 35001.1 hPa NE 5.1 km/h 7.7 km/h 74 % 0 mm
03:55 -14.6 °C -16.9 °C 35001.1 hPa NNE 2.6 km/h 7.7 km/h 74 % 0 mm
04:05 -14.4 °C -16.8 °C 35038.3 hPa North 2.6 km/h 5.1 km/h 74 % 0 mm
04:15 -14.2 °C -16.7 °C 35038.3 hPa NE 2.6 km/h 5.1 km/h 73 % 0 mm
04:25 -14.1 °C -16.7 °C 35038.3 hPa NE 5.1 km/h 7.7 km/h 72 % 0 mm
04:35 -14.1 °C -16.7 °C 35038.3 hPa ENE 7.7 km/h 10.3 km/h 72 % 0 mm
04:45 -13.8 °C -16.4 °C 35038.3 hPa Calm   5.1 km/h 72 % 0 mm
04:55 -13.7 °C -16.4 °C 35038.3 hPa NE 5.1 km/h 7.7 km/h 71 % 0 mm
05:05 -13.5 °C -16.3 °C 35038.3 hPa NNE 5.1 km/h 7.7 km/h 70 % 0 mm
05:15 -13.6 °C -16.4 °C 35038.3 hPa NNE 7.7 km/h 10.3 km/h 70 % 0 mm
05:25 -13.6 °C -16.5 °C 35038.3 hPa NNE 7.7 km/h 12.9 km/h 69 % 0 mm
11:31 -13.4 °C -16.4 °C 35038.3 hPa NNE 9.3 km/h 9.3 km/h 69 % 0 mm
11:32 -13.4 °C -16.4 °C 35038.3 hPa NE 9 km/h 9 km/h 69 % 0 mm
11:33 -13.4 °C -16.4 °C 35038.3 hPa ENE 11.9 km/h 11.9 km/h 69 % 0 mm
11:38 -13.4 °C -16.3 °C 35038.3 hPa NNE 11.9 km/h 11.9 km/h 69 % 0 mm
11:39 -13.4 °C -16.3 °C 35038.3 hPa NE 11.9 km/h 11.9 km/h 69 % 0 mm
11:44 -13.4 °C -16.5 °C 35038.3 hPa NE 15 km/h 15 km/h 68 % 0 mm
11:49 -13.4 °C -16.3 °C 35038.3 hPa NNE 11.9 km/h 11.9 km/h 69 % 0 mm
11:50 -13.4 °C -16.5 °C 35038.3 hPa NNE 14.5 km/h 14.5 km/h 68 % 0 mm
11:51 -13.4 °C -16.5 °C 35038.3 hPa NE 15 km/h 15 km/h 68 % 0 mm
11:57 -13.4 °C -16.5 °C 35038.3 hPa North 15 km/h 15 km/h 68 % 0 mm
12:02 -13.3 °C -16.4 °C 35038.3 hPa NNW 15 km/h 15 km/h 68 % 0 mm
12:03 -13.3 °C -16.3 °C 35038.3 hPa NE 9 km/h 9 km/h 68 % 0 mm
12:04 -13.3 °C -16.3 °C 35038.3 hPa NNE 11.1 km/h 11.1 km/h 68 % 0 mm
12:09 -13.3 °C -16.3 °C 35038.3 hPa ENE 15 km/h 15 km/h 68 % 0 mm
12:10 -13.3 °C -16.3 °C 35038.3 hPa ENE 16.6 km/h 16.6 km/h 68 % 0 mm
12:12 -13.2 °C -16.3 °C 35038.3 hPa NNE 15 km/h 15 km/h 68 % 0 mm
12:16 -13.2 °C -16.3 °C 35038.3 hPa NNE 16.1 km/h 16.1 km/h 68 % 0 mm
12:21 -13.2 °C -16.3 °C 35038.3 hPa NNE 15 km/h 15 km/h 68 % 0 mm
12:26 -13.2 °C -16.4 °C 35001.1 hPa NNE 23.8 km/h 23.8 km/h 67 % 0 mm
12:30 -13.1 °C -16.3 °C 35001.1 hPa NNE 15 km/h 15 km/h 67 % 0 mm
12:31 -13.1 °C -16.3 °C 35001.1 hPa NNE 15 km/h 15 km/h 67 % 0 mm
12:36 -13.1 °C -16.3 °C 35001.1 hPa ENE 15 km/h 15 km/h 67 % 0 mm
12:41 -13.2 °C -16.4 °C 35001.1 hPa ENE 17.9 km/h 17.9 km/h 67 % 0 mm
12:44 -13.1 °C -16.3 °C 35001.1 hPa ESE 9 km/h 9 km/h 67 % 0 mm
12:49 -13.1 °C -16.3 °C 35001.1 hPa North 15 km/h 15 km/h 67 % 0 mm
12:53 -13.1 °C -16.3 °C 35001.1 hPa NNE 15 km/h 15 km/h 67 % 0 mm
12:55 -13.1 °C -16.3 °C 35001.1 hPa WNW 11.9 km/h 11.9 km/h 67 % 0 mm
12:59 -12.9 °C -16.1 °C 35001.1 hPa NNE 6.3 km/h 6.3 km/h 67 % 0 mm
13:00 -12.9 °C -16.1 °C 35001.1 hPa NNW 9 km/h 9 km/h 67 % 0 mm
13:05 -12.8 °C -16 °C 35001.1 hPa NNE 15 km/h 15 km/h 67 % 0 mm
13:07 -12.8 °C -16.1 °C 35001.1 hPa ESE 15.6 km/h 15.6 km/h 67 % 0 mm
13:12 -12.7 °C -15.9 °C 34967.2 hPa NNW 15 km/h 15 km/h 67 % 0 mm
13:17 -12.6 °C -15.9 °C 34967.2 hPa North 11.1 km/h 11.1 km/h 66 % 0 mm
13:21 -12.7 °C -16 °C 34967.2 hPa North 17.9 km/h 17.9 km/h 66 % 0 mm
13:23 -12.6 °C -15.9 °C 34967.2 hPa NE 11.9 km/h 11.9 km/h 66 % 0 mm
13:26 -12.6 °C -15.9 °C 35001.1 hPa ENE 15 km/h 15 km/h 66 % 0 mm
13:29 -12.6 °C -15.9 °C 35001.1 hPa NNE 14.5 km/h 14.5 km/h 66 % 0 mm
13:34 -12.7 °C -16.2 °C 35001.1 hPa WNW 20.9 km/h 20.9 km/h 65 % 0 mm
13:35 -12.7 °C -16.2 °C 35001.1 hPa NW 16.6 km/h 16.6 km/h 65 % 0 mm
13:37 -12.7 °C -16.2 °C 35001.1 hPa NE 19.2 km/h 19.2 km/h 65 % 0 mm
13:41 -12.7 °C -16.2 °C 35001.1 hPa ESE 17.9 km/h 17.9 km/h 65 % 0 mm
13:43 -12.7 °C -16.2 °C 35001.1 hPa NNE 9 km/h 9 km/h 65 % 0 mm
13:46 -12.6 °C -16.1 °C 35001.1 hPa NE 11.9 km/h 11.9 km/h 65 % 0 mm
13:51 -12.5 °C -16 °C 35001.1 hPa NNE 12.7 km/h 12.7 km/h 65 % 0 mm
13:52 -12.6 °C -16 °C 35001.1 hPa ENE 15.6 km/h 15.6 km/h 65 % 0 mm
13:54 -12.6 °C -16.1 °C 35001.1 hPa NE 16.1 km/h 16.1 km/h 65 % 0 mm
13:58 -12.6 °C -16.1 °C 35001.1 hPa NNE 15 km/h 15 km/h 65 % 0 mm
14:03 -12.6 °C -16 °C 35001.1 hPa North 17.9 km/h 17.9 km/h 65 % 0 mm
14:04 -12.6 °C -16 °C 35001.1 hPa North 17.9 km/h 17.9 km/h 65 % 0 mm
14:09 -12.4 °C -15.9 °C 35001.1 hPa ENE 11.9 km/h 11.9 km/h 65 % 0 mm
14:14 -12.4 °C -15.9 °C 34967.2 hPa ESE 9 km/h 9 km/h 65 % 0 mm
14:16 -12.3 °C -15.8 °C 34967.2 hPa NNE 9 km/h 9 km/h 65 % 0 mm
14:20 -12.3 °C -15.8 °C 34967.2 hPa NE 9 km/h 9 km/h 65 % 0 mm
14:24 -12.3 °C -15.9 °C 34967.2 hPa ENE 12.2 km/h 12.2 km/h 64 % 0 mm
14:26 -12.3 °C -15.8 °C 34967.2 hPa NNE 12.2 km/h 12.2 km/h 65 % 0 mm
14:31 -12.2 °C -15.8 °C 34967.2 hPa ENE 15.6 km/h 15.6 km/h 64 % 0 mm
14:33 -12.2 °C -15.8 °C 34967.2 hPa NE 17.9 km/h 17.9 km/h 64 % 0 mm
14:36 -12.2 °C -15.8 °C 34967.2 hPa NNW 15 km/h 15 km/h 64 % 0 mm
14:38 -12.2 °C -15.8 °C 34967.2 hPa East 14 km/h 14 km/h 64 % 0 mm
14:39 -12.2 °C -15.8 °C 34967.2 hPa ENE 15 km/h 15 km/h 64 % 0 mm
14:42 -12.2 °C -15.8 °C 34967.2 hPa NNE 9 km/h 9 km/h 64 % 0 mm
14:46 -12.3 °C -15.9 °C 34967.2 hPa North 15 km/h 15 km/h 64 % 0 mm
14:48 -12.3 °C -15.9 °C 34967.2 hPa NNW 9.3 km/h 9.3 km/h 64 % 0 mm
14:53 -12.3 °C -15.9 °C 34967.2 hPa NE 15 km/h 15 km/h 64 % 0 mm
14:54 -12.3 °C -15.9 °C 34967.2 hPa NNE 15 km/h 15 km/h 64 % 0 mm
14:56 -12.3 °C -15.9 °C 34967.2 hPa ENE 11.9 km/h 11.9 km/h 64 % 0 mm
15:01 -12.3 °C -15.9 °C 34967.2 hPa WNW 15 km/h 15 km/h 64 % 0 mm
15:06 -12.3 °C -15.9 °C 34967.2 hPa ENE 9.3 km/h 9.3 km/h 64 % 0 mm
15:09 -12.3 °C -15.9 °C 34967.2 hPa WNW 11.9 km/h 11.9 km/h 64 % 0 mm
15:14 -12.3 °C -15.9 °C 34967.2 hPa North 8 km/h 8 km/h 64 % 0 mm
15:17 -12.3 °C -15.9 °C 34967.2 hPa NE 11.9 km/h 11.9 km/h 64 % 0 mm
15:19 -12.3 °C -15.9 °C 34967.2 hPa NW 6 km/h 6 km/h 64 % 0 mm
15:23 -12.2 °C -15.8 °C 34967.2 hPa ENE 9 km/h 9 km/h 64 % 0 mm
15:28 -12.2 °C -15.8 °C 34967.2 hPa ENE 11.9 km/h 11.9 km/h 64 % 0 mm
15:33 -12.2 °C -15.8 °C 34967.2 hPa NNE 6 km/h 6.3 km/h 64 % 0 mm
15:34 -12.2 °C -15.8 °C 34967.2 hPa East 9.8 km/h 9.8 km/h 64 % 0 mm
15:39 -12.1 °C -15.9 °C 34967.2 hPa NE 15 km/h 15 km/h 63 % 0 mm
15:44 -12.1 °C -15.9 °C 34946.9 hPa East 6 km/h 6 km/h 63 % 0 mm
15:46 -12.1 °C -15.9 °C 34946.9 hPa NNE 6 km/h 6.3 km/h 63 % 0 mm
15:47 -12.1 °C -15.9 °C 34946.9 hPa NNW 6.8 km/h 6.8 km/h 63 % 0 mm
15:52 -12.1 °C -15.9 °C 34946.9 hPa NNE 9 km/h 9 km/h 63 % 0 mm
15:57 -12.1 °C -15.9 °C 34946.9 hPa ENE 6.3 km/h 6.3 km/h 63 % 0 mm
15:58 -12.1 °C -15.9 °C 34946.9 hPa NE 9 km/h 9 km/h 63 % 0 mm
15:59 -12.1 °C -15.9 °C 34946.9 hPa NW 9 km/h 9 km/h 63 % 0 mm
16:03 -12.1 °C -15.7 °C 34946.9 hPa NNW 9 km/h 9 km/h 64 % 0 mm
16:08 -12.2 °C -15.9 °C 34946.9 hPa NE 16.6 km/h 16.6 km/h 63 % 0 mm
16:09 -12.2 °C -15.9 °C 34967.2 hPa ENE 17.9 km/h 17.9 km/h 63 % 0 mm
16:14 -12.2 °C -15.9 °C 34967.2 hPa ENE 8 km/h 8 km/h 63 % 0 mm
16:15 -12.2 °C -15.9 °C 34967.2 hPa NNE 11.9 km/h 11.9 km/h 63 % 0 mm
16:20 -12.2 °C -15.9 °C 34967.2 hPa NNE 9 km/h 9 km/h 63 % 0 mm
16:21 -12.2 °C -15.9 °C 34967.2 hPa NE 9 km/h 9 km/h 63 % 0 mm
16:26 -12.2 °C -15.9 °C 34946.9 hPa NE 6.3 km/h 6.3 km/h 63 % 0 mm
16:31 -12.3 °C -15.9 °C 34946.9 hPa NNE 6 km/h 6 km/h 64 % 0 mm
16:32 -12.3 °C -15.9 °C 34946.9 hPa NE 6.8 km/h 6.8 km/h 64 % 0 mm
16:37 -12.3 °C -15.9 °C 34946.9 hPa NNE 9 km/h 9 km/h 64 % 0 mm
16:42 -12.4 °C -16 °C 34967.2 hPa East 9 km/h 9 km/h 64 % 0 mm
16:47 -12.4 °C -16 °C 34967.2 hPa WNW 9 km/h 9 km/h 64 % 0 mm
16:49 -12.4 °C -16 °C 34967.2 hPa NNE 6 km/h 6 km/h 64 % 0 mm
16:54 -12.4 °C -16.1 °C 35001.1 hPa NNE 11.9 km/h 11.9 km/h 64 % 0 mm
16:55 -12.4 °C -16.1 °C 35001.1 hPa North 5.1 km/h 12.9 km/h 64 % 0 mm
17:00 -12.4 °C -16.1 °C 35001.1 hPa North 5.1 km/h 7.7 km/h 64 % 0 mm
17:05 -12.4 °C -16.1 °C 35001.1 hPa NW 6 km/h 6 km/h 64 % 0 mm
17:06 -12.5 °C -16.1 °C 35001.1 hPa WNW 6 km/h 6 km/h 64 % 0 mm
17:11 -12.5 °C -16.1 °C 35001.1 hPa WNW 6 km/h 6 km/h 64 % 0 mm
17:13 -12.6 °C -16.2 °C 35001.1 hPa NNW 6 km/h   64 % 0 mm
17:18 -12.6 °C -16.2 °C 35001.1 hPa WNW 6.3 km/h 6.3 km/h 64 % 0 mm
17:20 -12.7 °C -16.3 °C 35001.1 hPa SW 6 km/h 6 km/h 64 % 0 mm
17:24 -12.7 °C -16.3 °C 35001.1 hPa WSW 7.6 km/h   64 % 0 mm
17:27 -12.7 °C -16.3 °C 35001.1 hPa WSW 4.2 km/h   64 % 0 mm
17:29 -12.7 °C -16.3 °C 35001.1 hPa WSW 4.2 km/h 5.6 km/h 64 % 0 mm
17:34 -12.8 °C -16.2 °C 35001.1 hPa WSW 6 km/h 6 km/h 65 % 0 mm
17:35 -12.8 °C -16.3 °C 35001.1 hPa West 6 km/h 6 km/h 65 % 0 mm
17:40 -12.9 °C -16.3 °C 35001.1 hPa WNW 11.9 km/h 11.9 km/h 65 % 0 mm
17:41 -12.9 °C -16.3 °C 35001.1 hPa ESE 9 km/h   65 % 0 mm
17:44 -12.9 °C -16.4 °C 35001.1 hPa West 6 km/h 6 km/h 65 % 0 mm
17:49 -12.9 °C -16.4 °C 35001.1 hPa WNW 3.1 km/h 3.1 km/h 65 % 0 mm
17:50 -12.9 °C -16.4 °C 35001.1 hPa SW 3.1 km/h 3.1 km/h 65 % 0 mm
17:55 -13.1 °C -16.5 °C 35001.1 hPa West 6 km/h 6 km/h 65 % 0 mm
18:00 -13.1 °C -16.5 °C 35001.1 hPa West 6 km/h 6 km/h 65 % 0 mm
18:01 -13.1 °C -16.4 °C 35001.1 hPa SSW 3.1 km/h 3.1 km/h 66 % 0 mm
18:06 -13.2 °C -16.5 °C 35001.1 hPa SW 6.3 km/h 6.3 km/h 66 % 0 mm
18:11 -13.2 °C -16.6 °C 35001.1 hPa West 6.3 km/h 6.3 km/h 66 % 0 mm
18:13 -13.2 °C -16.6 °C 35001.1 hPa WSW 6 km/h 6.3 km/h 66 % 0 mm
18:18 -13.3 °C -16.6 °C 35001.1 hPa SW 6 km/h 6 km/h 66 % 0 mm
18:19 -13.3 °C -16.6 °C 35001.1 hPa SW 6 km/h 6 km/h 66 % 0 mm
18:20 -13.3 °C -16.6 °C 35001.1 hPa SW 5.6 km/h   66 % 0 mm
18:24 -13.3 °C -16.6 °C 35001.1 hPa WSW 6 km/h 6 km/h 66 % 0 mm
18:25 -15.5 °C -17.8 °C 35001.1 hPa Calm   10.3 km/h 74 % 0 mm
18:29 -13.3 °C -16.6 °C 35001.1 hPa WSW 6 km/h 6.3 km/h 66 % 0 mm
18:34 -13.3 °C -16.6 °C 35001.1 hPa Calm     67 % 0 mm
18:35 -15.4 °C -17.6 °C 35001.1 hPa NNE 5.1 km/h 7.7 km/h 75 % 0 mm
18:41 -13.3 °C -16.6 °C 35001.1 hPa West 3.1 km/h 3.1 km/h 67 % 0 mm
18:42 -13.3 °C -16.6 °C 35001.1 hPa West 3.1 km/h 3.1 km/h 67 % 0 mm
18:45 -15.4 °C -17.7 °C 35001.1 hPa Calm   2.6 km/h 75 % 0 mm
18:47 -13.4 °C -16.6 °C 35001.1 hPa Calm     67 % 0 mm
18:48 -13.4 °C -16.6 °C 35001.1 hPa Calm     67 % 0 mm
18:53 -13.4 °C -16.6 °C 35001.1 hPa Calm     67 % 0 mm
18:55 -15.5 °C -17.7 °C 35001.1 hPa Calm   2.6 km/h 75 % 0 mm
18:58 -13.5 °C -16.7 °C 35001.1 hPa Calm     67 % 0 mm
19:00 -13.5 °C -16.7 °C 35001.1 hPa Calm     67 % 0 mm
19:05 -13.6 °C -16.6 °C 35001.1 hPa Calm     68 % 0 mm
19:06 -13.6 °C -16.6 °C 35001.1 hPa Calm     68 % 0 mm
19:07 -13.6 °C -16.6 °C 35001.1 hPa NW 3.1 km/h   68 % 0 mm
19:11 -13.6 °C -16.7 °C 35001.1 hPa WNW 6.3 km/h   68 % 0 mm
19:14 -13.6 °C -16.7 °C 35001.1 hPa WNW 3.1 km/h 3.1 km/h 68 % 0 mm
19:15 -15.7 °C -17.9 °C 35001.1 hPa Calm   5.1 km/h 75 % 0 mm
19:16 -13.6 °C -16.7 °C 35001.1 hPa West 6 km/h 6 km/h 68 % 0 mm
19:21 -13.7 °C -16.7 °C 35001.1 hPa SW 4.2 km/h   68 % 0 mm
19:23 -13.7 °C -16.8 °C 35001.1 hPa SW 3.1 km/h   68 % 0 mm
19:24 -13.8 °C -16.8 °C 35001.1 hPa ENE 2.3 km/h   68 % 0 mm
19:25 -15.7 °C -18.1 °C 35001.1 hPa West 2.6 km/h 5.1 km/h 74 % 0 mm
19:28 -13.8 °C -16.9 °C 35001.1 hPa West 4.2 km/h 4.2 km/h 68 % 0 mm
19:30 -13.8 °C -16.9 °C 35001.1 hPa WSW 2.6 km/h 5.1 km/h 68 % 0 mm
19:35 -13.9 °C -17 °C 35001.1 hPa SW 6 km/h 6 km/h 68 % 0 mm
19:36 -13.9 °C -17 °C 35001.1 hPa WSW 6 km/h 6 km/h 68 % 0 mm
19:41 -13.9 °C -16.9 °C 35001.1 hPa Calm     68 % 0 mm
19:42 -13.9 °C -17 °C 35001.1 hPa NW 3.1 km/h 3.1 km/h 68 % 0 mm
19:44 -13.9 °C -17 °C 35001.1 hPa WNW 6 km/h 6 km/h 68 % 0 mm
19:45 -15.9 °C -18.1 °C 35001.1 hPa North 2.6 km/h 5.1 km/h 75 % 0 mm
19:49 -13.9 °C -17 °C 35001.1 hPa Calm     68 % 0 mm
19:50 -13.9 °C -17 °C 35001.1 hPa Calm     68 % 0 mm
19:55 -14 °C -16.9 °C 35001.1 hPa Calm     69 % 0 mm
19:58 -14 °C -16.9 °C 35001.1 hPa WNW 4.2 km/h 4.2 km/h 69 % 0 mm
20:03 -14 °C -16.9 °C 35001.1 hPa Calm     69 % 0 mm
20:05 -16 °C -18.1 °C 34967.2 hPa NNE 2.6 km/h 12.9 km/h 76 % 0 mm
20:06 -14.1 °C -17 °C 35001.1 hPa Calm     69 % 0 mm
20:09 -14.1 °C -17 °C 35001.1 hPa Calm     69 % 0 mm
20:14 -14.1 °C -17.1 °C 35001.1 hPa Calm     69 % 0 mm
20:15 -14.1 °C -17.1 °C 35001.1 hPa Calm     69 % 0 mm
20:17 -14.1 °C -17.1 °C 35001.1 hPa Calm     69 % 0 mm
20:20 -14.1 °C -17.1 °C 35001.1 hPa WNW 3.7 km/h 3.7 km/h 69 % 0 mm
20:25 -14.3 °C -17.3 °C 35001.1 hPa WSW 6 km/h 6 km/h 69 % 0 mm
20:26 -14.3 °C -17.3 °C 35001.1 hPa WSW 6 km/h 6 km/h 69 % 0 mm
20:31 -14.4 °C -17.3 °C 35001.1 hPa WSW 6 km/h 6 km/h 69 % 0 mm
20:35 -16.1 °C -18.2 °C 34967.2 hPa NNE 2.6 km/h 5.1 km/h 77 % 0 mm
20:36 -14.3 °C -17.3 °C 35001.1 hPa Calm     69 % 0 mm
20:37 -14.3 °C -17.3 °C 35001.1 hPa Calm     69 % 0 mm
20:40 -14.3 °C -17.2 °C 35001.1 hPa NW 3.1 km/h   70 % 0 mm
20:45 -14.3 °C -17.1 °C 35001.1 hPa NW 3.1 km/h   70 % 0 mm
20:46 -14.3 °C -17.1 °C 35001.1 hPa NW 3.1 km/h   70 % 0 mm
20:51 -14.2 °C -17.1 °C 35001.1 hPa Calm     70 % 0 mm
20:55 -16.1 °C -18.2 °C 34967.2 hPa NNE 2.6 km/h 5.1 km/h 77 % 0 mm
20:56 -14.3 °C -17.1 °C 35001.1 hPa Calm     70 % 0 mm
20:58 -14.3 °C -17.1 °C 35001.1 hPa Calm     70 % 0 mm
21:01 -14.3 °C -17.1 °C 35001.1 hPa Calm     70 % 0 mm
21:03 -14.3 °C -17.1 °C 35001.1 hPa Calm     70 % 0 mm
21:05 -16.2 °C -18.2 °C 34967.2 hPa Calm   2.6 km/h 77 % 0 mm
21:08 -14.3 °C -17.1 °C 35001.1 hPa Calm     70 % 0 mm
21:11 -14.3 °C -17.1 °C 35001.1 hPa WNW 4.2 km/h   70 % 0 mm
21:15 -14.3 °C -17.2 °C 35001.1 hPa Calm     70 % 0 mm
21:16 -14.3 °C -17.2 °C 35001.1 hPa Calm     70 % 0 mm
21:21 -14.3 °C -17.1 °C 35001.1 hPa Calm     71 % 0 mm
21:25 -16.2 °C -18.2 °C 34967.2 hPa North 2.6 km/h 5.1 km/h 78 % 0 mm
21:26 -14.3 °C -17.1 °C 35001.1 hPa NE 5.1 km/h 5.1 km/h 71 % 0 mm
21:27 -14.3 °C -17.1 °C 35001.1 hPa NE 5.1 km/h 5.1 km/h 71 % 0 mm
21:31 -14.4 °C -17.2 °C 35001.1 hPa NE 3.1 km/h   71 % 0 mm
21:32 -14.4 °C -17.2 °C 35001.1 hPa Calm     71 % 0 mm
21:35 -16.3 °C -18.2 °C 34967.2 hPa North 2.6 km/h 7.7 km/h 78 % 0 mm
21:37 -14.5 °C -17.2 °C 35001.1 hPa WNW 3.1 km/h   71 % 0 mm
21:38 -14.5 °C -17.2 °C 35001.1 hPa WNW 3.1 km/h   71 % 0 mm
21:43 -14.6 °C -17.3 °C 35001.1 hPa Calm     71 % 0 mm
21:44 -14.6 °C -17.3 °C 35001.1 hPa Calm     71 % 0 mm
21:45 -16.3 °C -18.2 °C 34967.2 hPa NW 5.1 km/h 5.1 km/h 78 % 0 mm
21:49 -14.7 °C -17.3 °C 35001.1 hPa WNW 3.7 km/h 3.7 km/h 71 % 0 mm
21:52 -14.7 °C -17.3 °C 35001.1 hPa Calm     71 % 0 mm
21:55 -14.7 °C -17.4 °C 35001.1 hPa Calm     71 % 0 mm
22:00 -14.8 °C -17.4 °C 35001.1 hPa West 4.2 km/h   71 % 0 mm
22:01 -14.8 °C -17.4 °C 35001.1 hPa West 4.2 km/h   71 % 0 mm
22:05 -14.9 °C -17.6 °C 35001.1 hPa SW 3.1 km/h 3.7 km/h 71 % 0 mm
22:06 -14.9 °C -17.6 °C 35001.1 hPa West 6 km/h 6 km/h 71 % 0 mm
22:11 -14.9 °C -17.6 °C 35001.1 hPa West 3.7 km/h 3.7 km/h 71 % 0 mm
22:12 -14.9 °C -17.6 °C 35001.1 hPa West 4.2 km/h 4.2 km/h 71 % 0 mm
22:15 -16.4 °C -18.4 °C 34967.2 hPa WNW 2.6 km/h 5.1 km/h 78 % 0 mm
22:17 -15 °C -17.7 °C 35001.1 hPa WSW 6 km/h 6 km/h 71 % 0 mm
22:20 -14.9 °C -17.6 °C 35001.1 hPa WSW 4.2 km/h 4.2 km/h 71 % 0 mm
22:26 -14.9 °C -17.6 °C 35001.1 hPa WSW 6 km/h 6 km/h 71 % 0 mm
22:29 -15 °C -17.6 °C 35001.1 hPa SW 4.2 km/h 4.2 km/h 72 % 0 mm
22:34 -15 °C -17.6 °C 35001.1 hPa WSW 6 km/h 6 km/h 72 % 0 mm
22:35 -16.5 °C -18.4 °C 34946.9 hPa Calm   5.1 km/h 78 % 0 mm
22:38 -15 °C -17.6 °C 35001.1 hPa West 6 km/h 6 km/h 72 % 0 mm
22:43 -14.9 °C -17.6 °C 35001.1 hPa West 6 km/h 6 km/h 72 % 0 mm
22:44 -14.9 °C -17.6 °C 35001.1 hPa West 4.2 km/h 4.2 km/h 72 % 0 mm
22:45 -16.4 °C -18.3 °C 34946.9 hPa NNW 2.6 km/h 5.1 km/h 79 % 0 mm
22:49 -14.9 °C -17.6 °C 35001.1 hPa SW 6 km/h 6 km/h 72 % 0 mm
22:50 -15 °C -17.6 °C 35001.1 hPa SW 6 km/h 6 km/h 72 % 0 mm
22:55 -15 °C -17.6 °C 35001.1 hPa WSW 6 km/h 6 km/h 72 % 0 mm
23:00 -15.1 °C -17.6 °C 35001.1 hPa SW 6 km/h 6 km/h 73 % 0 mm
23:01 -15.1 °C -17.6 °C 35001.1 hPa SW 6 km/h 6 km/h 73 % 0 mm
23:05 -16.4 °C -18.3 °C 34946.9 hPa North 2.6 km/h 7.7 km/h 79 % 0 mm
23:06 -15.2 °C -17.6 °C 35001.1 hPa WSW 3.7 km/h 3.7 km/h 73 % 0 mm
23:07 -15.2 °C -17.6 °C 35001.1 hPa WSW 4.2 km/h 4.2 km/h 73 % 0 mm
23:12 -15.2 °C -17.6 °C 35001.1 hPa West 4.2 km/h   73 % 0 mm
23:14 -15.2 °C -17.6 °C 35001.1 hPa WSW 6 km/h 6 km/h 73 % 0 mm
23:15 -16.5 °C -18.3 °C 34946.9 hPa NNW 2.6 km/h 5.1 km/h 79 % 0 mm
23:18 -15.2 °C -17.7 °C 35001.1 hPa WSW 6 km/h 6 km/h 73 % 0 mm
23:22 -15.2 °C -17.6 °C 35001.1 hPa WSW 3.1 km/h 3.1 km/h 73 % 0 mm
23:23 -15.2 °C -17.6 °C 35001.1 hPa WSW 3.1 km/h 3.1 km/h 73 % 0 mm
23:25 -16.5 °C -18.3 °C 34899.5 hPa NNW 5.1 km/h 7.7 km/h 79 % 0 mm
23:28 -15.2 °C -17.6 °C 35001.1 hPa Calm     74 % 0 mm
23:33 -15.2 °C -17.6 °C 35001.1 hPa Calm     74 % 0 mm
23:35 -16.5 °C -18.3 °C 34946.9 hPa NNW 5.1 km/h 7.7 km/h 79 % 0 mm
23:38 -15.2 °C -17.6 °C 35001.1 hPa Calm     74 % 0 mm
23:40 -15.2 °C -17.6 °C 35001.1 hPa Calm     74 % 0 mm
23:45 -15.2 °C -17.6 °C 35001.1 hPa Calm     74 % 0 mm
23:48 -15.2 °C -17.6 °C 35001.1 hPa NNE 4.2 km/h 4.2 km/h 74 % 0 mm
23:53 -15.2 °C -17.6 °C 35001.1 hPa Calm     74 % 0 mm
23:55 -16.6 °C -18.4 °C 34946.9 hPa ENE 5.1 km/h 10.3 km/h 79 % 0 mm
23:58 -15.2 °C -17.6 °C 35001.1 hPa Calm     74 % 0 mm
Meteo Sesrovires
Elogis d' Weather Underground - 2 mb

Guio original per  Jim McMurry - jmcmurry@mwt.net Adaptat per a la plantilla per  Wim van der Kuil - Leuven-Template.eu

Trobareu la nostra informacio del temps tambe a:

Weather Underground

AWEKAS